Time;durP1;ratioP1;P1;durP2;ratioP2;P2;SDS_P1;SDS_P2;PMS_P1;PMS_P2;Temp;Humidity;BMP_temperature;BMP_pressure;BME280_temperature;BME280_humidity;BME280_pressure;Samples;Min_cycle;Max_cycle;Signal;HPM_P1;HPM_P2
2021/12/25 00:01:52;;;;;;;;;47.75;39.00;;;;;10.33;77.19;99621.78;5099184;27;53821;-60
2021/12/25 00:04:17;;;;;;;;;50.50;38.75;;;;;10.33;77.20;99615.72;5099340;27;45268;-61
2021/12/25 00:06:43;;;;;;;;;41.50;35.00;;;;;10.31;77.31;99615.88;5099564;27;45306;-59
2021/12/25 00:09:08;;;;;;;;;41.50;35.75;;;;;10.31;77.58;99609.81;5081345;27;45275;-61
2021/12/25 00:11:34;;;;;;;;;44.75;37.25;;;;;10.31;77.31;99608.00;5099292;27;46865;-61
2021/12/25 00:13:59;;;;;;;;;51.50;40.00;;;;;10.31;77.15;99604.53;5099574;27;45245;-60
2021/12/25 00:16:24;;;;;;;;;44.25;36.75;;;;;10.32;77.42;99600.94;5098976;27;46866;-62
2021/12/25 00:18:50;;;;;;;;;41.50;35.25;;;;;10.32;77.22;99601.78;5098637;27;55284;-61
2021/12/25 00:21:15;;;;;;;;;42.50;34.75;;;;;10.33;77.26;99597.34;5098149;27;72776;-62
2021/12/25 00:23:41;;;;;;;;;42.50;35.25;;;;;10.32;77.22;99595.69;5079638;27;64174;-61
2021/12/25 00:26:22;;;;;;;;;36.00;32.00;;;;;10.33;77.37;99597.34;5098825;27;45599;-61
2021/12/25 00:28:55;;;;;;;;;33.50;30.75;;;;;10.32;77.28;99596.53;5099208;27;45594;-59
2021/12/25 00:31:29;;;;;;;;;45.25;36.25;;;;;10.32;77.34;99595.69;5081831;27;45375;-60
2021/12/25 00:34:00;;;;;;;;;38.75;35.00;;;;;10.31;77.38;99594.88;5098982;27;45812;-61
2021/12/25 00:36:26;;;;;;;;;36.50;32.50;;;;;10.31;77.08;99589.63;5099273;27;45212;-60
2021/12/25 00:38:51;;;;;;;;;42.75;32.50;;;;;10.31;77.29;99592.25;5098917;27;45203;-61
2021/12/25 00:41:19;;;;;;;;;39.50;32.25;;;;;10.31;77.25;99583.53;5080491;27;46165;-61
2021/12/25 00:43:44;;;;;;;;;31.75;30.00;;;;;10.32;77.30;99582.56;5098773;27;45356;-60
2021/12/25 00:46:10;;;;;;;;;39.25;33.00;;;;;10.32;77.59;99570.28;5098057;27;60999;-59
2021/12/25 00:48:35;;;;;;;;;38.00;33.25;;;;;10.32;77.51;99566.81;5080598;27;45495;-60
2021/12/25 00:51:00;;;;;;;;;41.25;34.75;;;;;10.32;77.54;99566.81;5080310;27;45614;-61
2021/12/25 00:53:26;;;;;;;;;35.75;33.00;;;;;10.33;77.16;99560.56;5097550;27;45398;-61
2021/12/25 00:55:52;;;;;;;;;37.50;32.50;;;;;10.33;77.55;99563.19;5097162;27;62497;-60
2021/12/25 00:58:17;;;;;;;;;38.25;32.75;;;;;10.32;77.14;99558.94;5080465;27;45457;-61
2021/12/25 01:00:43;;;;;;;;;38.00;33.75;;;;;10.31;77.47;99554.66;5079343;27;70111;-61
2021/12/25 01:03:08;;;;;;;;;28.25;28.00;;;;;10.31;77.35;99562.53;5063341;27;45396;-61
2021/12/25 01:05:33;;;;;;;;;32.50;31.00;;;;;10.31;76.90;99552.03;5097757;27;59499;-62
2021/12/25 01:07:59;;;;;;;;;33.50;30.50;;;;;10.30;77.14;99553.84;5097547;27;65657;-61
2021/12/25 01:10:24;;;;;;;;;37.75;33.00;;;;;10.29;77.18;99560.09;5098181;27;45779;-60
2021/12/25 01:15:34;;;;;;;;;38.00;32.00;;;;;10.29;77.19;99561.88;5098468;27;45390;-61
2021/12/25 01:28:47;;;;;;;;;34.50;27.25;;;;;10.25;77.12;99575.31;5081420;27;45496;-60
2021/12/25 01:49:10;;;;;;;;;29.00;25.75;;;;;10.12;76.20;99568.88;5082195;27;45276;-61
2021/12/25 01:51:35;;;;;;;;;24.75;22.00;;;;;10.09;76.66;99572.59;5078311;27;72191;-62
2021/12/25 01:54:01;;;;;;;;;30.25;25.50;;;;;10.06;76.49;99578.19;5096777;27;67577;-60
2021/12/25 01:56:26;;;;;;;;;26.75;22.00;;;;;10.04;76.20;99577.53;5097694;27;45370;-60
2021/12/25 01:58:52;;;;;;;;;29.50;23.00;;;;;10.01;76.39;99580.47;5062244;27;54725;-61
2021/12/25 02:01:17;;;;;;;;;24.00;21.25;;;;;9.99;76.39;99580.59;5097406;27;45685;-62
2021/12/25 02:03:43;;;;;;;;;21.50;20.50;;;;;9.97;75.82;99587.00;5097492;27;45292;-61
2021/12/25 02:06:09;;;;;;;;;28.00;23.00;;;;;9.94;75.96;99591.56;5062484;27;45263;-61
2021/12/25 02:08:35;;;;;;;;;23.25;21.25;;;;;9.93;76.42;99597.81;5078023;27;45320;-60
2021/12/25 02:11:00;;;;;;;;;28.25;25.25;;;;;9.92;76.20;99596.16;5079322;27;46532;-61
2021/12/25 02:13:26;;;;;;;;;28.00;23.25;;;;;9.91;76.31;99598.91;5079095;27;46418;-61
2021/12/25 02:15:53;;;;;;;;;25.50;24.50;;;;;9.88;76.11;99600.06;5096430;27;64757;-61
2021/12/25 02:19:10;;;;;;;;;22.75;22.00;;;;;9.87;76.11;99602.84;5078871;27;45403;-60
2021/12/25 02:21:18;;;;;;;;;27.00;23.25;;;;;9.84;76.17;99609.22;5085822;27;45359;-61
2021/12/25 02:23:43;;;;;;;;;29.50;26.00;;;;;9.84;76.31;99609.22;5078902;27;45746;-60
2021/12/25 02:26:08;;;;;;;;;28.00;24.50;;;;;9.83;76.36;99602.31;5097159;27;45468;-60
2021/12/25 02:28:34;;;;;;;;;59.00;47.00;;;;;9.83;76.34;99594.47;5097317;27;45654;-60
2021/12/25 02:31:06;;;;;;;;;28.50;23.50;;;;;9.83;76.93;99599.72;5097037;27;45355;-61
2021/12/25 02:33:31;;;;;;;;;36.25;32.25;;;;;9.83;76.84;99593.63;5078750;27;45801;-61
2021/12/25 02:35:56;;;;;;;;;36.25;33.00;;;;;9.84;76.95;99595.25;5077999;27;66218;-62
2021/12/25 02:38:22;;;;;;;;;33.75;31.00;;;;;9.83;76.93;99583.97;5078727;27;45523;-60
2021/12/25 02:40:48;;;;;;;;;29.00;21.25;;;;;9.83;76.77;99583.97;5096984;27;45685;-60
2021/12/25 02:43:13;;;;;;;;;27.75;23.00;;;;;9.83;76.62;99591.00;5096855;27;45190;-61
2021/12/25 02:45:39;;;;;;;;;26.00;21.00;;;;;9.82;76.70;99590.19;5078689;27;45407;-61
2021/12/25 02:48:09;;;;;;;;;26.00;24.00;;;;;9.83;76.47;99585.75;5096315;27;45276;-60
2021/12/25 02:50:35;;;;;;;;;28.00;21.50;;;;;9.82;76.75;99582.31;5096882;27;46382;-60
2021/12/25 02:53:01;;;;;;;;;25.25;23.75;;;;;9.80;76.77;99584.28;5078576;27;45289;-59
2021/12/25 02:55:27;;;;;;;;;25.25;21.50;;;;;9.79;76.81;99580.84;5078743;27;45277;-61
2021/12/25 02:57:53;;;;;;;;;23.50;23.00;;;;;9.78;76.40;99583.59;5096916;27;45289;-62
2021/12/25 03:00:42;;;;;;;;;29.00;23.50;;;;;9.77;76.60;99587.19;5096512;27;45500;-60
2021/12/25 03:03:08;;;;;;;;;24.25;22.50;;;;;9.76;76.86;99583.78;5096774;27;45444;-61
2021/12/25 03:05:34;;;;;;;;;25.25;22.75;;;;;9.76;76.69;99585.56;5078641;27;45482;-62
2021/12/25 03:07:59;;;;;;;;;27.75;25.25;;;;;9.75;76.75;99581.28;5096846;27;45423;-60
2021/12/25 03:10:25;;;;;;;;;28.00;23.00;;;;;9.74;76.79;99577.00;5096448;27;46415;-61
2021/12/25 03:13:04;;;;;;;;;25.75;22.25;;;;;9.73;76.91;99576.22;5096011;27;62606;-61
2021/12/25 03:15:40;;;;;;;;;25.00;24.00;;;;;9.73;76.55;99578.00;5096729;27;45389;-59
2021/12/25 03:18:06;;;;;;;;;26.25;23.50;;;;;9.73;76.48;99583.25;5096684;27;45378;-60
2021/12/25 03:20:33;;;;;;;;;24.50;21.50;;;;;9.72;76.26;99582.44;5098499;27;72821;-60
2021/12/25 03:22:58;;;;;;;;;32.25;21.75;;;;;9.71;76.66;99587.81;5100074;27;45840;-61
2021/12/25 03:25:24;;;;;;;;;24.75;20.50;;;;;9.67;76.52;99584.69;5065004;27;45352;-61
2021/12/25 03:27:51;;;;;;;;;26.50;21.50;;;;;9.64;76.20;99583.19;5099775;27;45476;-61
2021/12/25 03:30:17;;;;;;;;;20.25;19.25;;;;;9.64;76.37;99577.13;5099967;27;45434;-59
2021/12/25 03:32:45;;;;;;;;;27.00;22.00;;;;;9.62;76.20;99579.06;5100066;27;45835;-61
2021/12/25 03:35:11;;;;;;;;;23.00;20.00;;;;;9.59;76.27;99580.19;5081849;27;45336;-61
2021/12/25 03:37:36;;;;;;;;;35.75;31.50;;;;;9.56;76.35;99580.50;5098926;27;69423;-61
2021/12/25 03:40:02;;;;;;;;;28.75;26.00;;;;;9.56;76.13;99584.94;5099545;27;46306;-61
2021/12/25 03:42:27;;;;;;;;;24.50;20.50;;;;;9.53;75.99;99585.22;5081344;27;45444;-61
2021/12/25 03:44:53;;;;;;;;;28.25;23.25;;;;;9.51;76.30;99585.41;5098860;27;65848;-61
2021/12/25 03:47:29;;;;;;;;;25.25;24.25;;;;;9.49;76.44;99585.53;5099818;27;45326;-61
2021/12/25 03:58:12;;;;;;;;;25.50;22.25;;;;;9.47;76.67;99597.97;5099680;27;45256;-62
2021/12/25 04:00:40;;;;;;;;;25.00;24.50;;;;;9.47;76.85;99599.78;5099517;27;46340;-60
2021/12/25 04:03:09;;;;;;;;;29.50;24.25;;;;;9.47;76.56;99597.16;5099535;27;45392;-61
2021/12/25 04:05:38;;;;;;;;;28.25;23.50;;;;;9.47;76.78;99597.97;5081232;27;45431;-60
2021/12/25 04:08:08;;;;;;;;;26.25;21.00;;;;;9.48;76.62;99604.88;5081645;27;45539;-62
2021/12/25 04:10:42;;;;;;;;;32.75;23.00;;;;;9.49;76.58;99603.09;5099415;27;45520;-61
2021/12/25 04:13:09;;;;;;;;;40.50;33.50;;;;;9.48;76.96;99601.44;5081837;27;45433;-61
2021/12/25 04:15:35;;;;;;;;;44.25;36.75;;;;;9.49;76.68;99597.84;5099500;27;45230;-60
2021/12/25 04:18:00;;;;;;;;;38.25;35.00;;;;;9.47;76.85;99597.97;5099372;27;45501;-61
2021/12/25 04:20:27;;;;;;;;;30.75;29.75;;;;;9.49;76.82;99605.72;5099095;27;46126;-60
2021/12/25 04:23:11;;;;;;;;;60.50;48.50;;;;;9.49;76.87;99601.28;5099005;27;45307;-60
2021/12/25 04:25:37;;;;;;;;;60.00;47.00;;;;;9.50;77.26;99602.09;5098096;27;45246;-61
2021/12/25 04:28:12;;;;;;;;;37.00;33.75;;;;;9.51;76.92;99606.38;5080644;27;45273;-61
2021/12/25 05:05:25;;;;;;;;;51.25;38.00;;;;;9.61;77.10;99593.97;5098413;27;45354;-61
2021/12/25 05:07:51;;;;;;;;;43.50;36.25;;;;;9.62;77.09;99600.88;5098528;27;45359;-60
2021/12/25 05:10:16;;;;;;;;;43.50;37.25;;;;;9.62;77.26;99603.50;5098520;27;45335;-61
2021/12/25 05:12:42;;;;;;;;;46.25;37.25;;;;;9.63;76.78;99602.50;5097319;27;67749;-61
2021/12/25 05:15:07;;;;;;;;;37.25;33.00;;;;;9.63;76.85;99604.31;5097042;27;45345;-61
2021/12/25 05:17:33;;;;;;;;;46.00;36.75;;;;;9.63;76.95;99610.38;5080030;27;45335;-62
2021/12/25 05:19:59;;;;;;;;;46.75;35.50;;;;;9.65;77.02;99610.25;5098166;27;45771;-61
2021/12/25 05:22:25;;;;;;;;;49.75;38.00;;;;;9.65;77.22;99602.38;5097420;27;46383;-61
2021/12/25 05:24:51;;;;;;;;;46.50;36.50;;;;;9.65;76.83;99605.81;5079758;27;45412;-61
2021/12/25 05:27:17;;;;;;;;;43.50;35.00;;;;;9.65;77.01;99603.19;5079949;27;45335;-60
2021/12/25 05:29:46;;;;;;;;;48.00;37.50;;;;;9.65;77.25;99610.25;5098048;27;45602;-61
2021/12/25 05:32:13;;;;;;;;;48.00;36.75;;;;;9.67;77.37;99602.22;5097965;27;45361;-62
2021/12/25 05:34:38;;;;;;;;;47.50;35.50;;;;;9.68;77.00;99604.69;5097967;27;45424;-61
2021/12/25 05:37:04;;;;;;;;;50.00;38.00;;;;;9.68;77.33;99604.69;5079065;27;60117;-60
2021/12/25 05:39:29;;;;;;;;;40.00;33.75;;;;;9.69;77.09;99610.75;5097877;27;45556;-62
2021/12/25 05:41:55;;;;;;;;;43.50;35.75;;;;;9.69;76.82;99605.50;5097238;27;55605;-61
2021/12/25 05:44:20;;;;;;;;;46.50;38.25;;;;;9.70;77.25;99610.63;5097264;27;57014;-62
2021/12/25 05:46:46;;;;;;;;;42.75;35.50;;;;;9.70;77.27;99615.84;5097183;27;61121;-61
2021/12/25 05:49:11;;;;;;;;;48.50;37.75;;;;;9.71;76.96;99611.41;5097906;27;45207;-61
2021/12/25 05:51:36;;;;;;;;;49.25;35.75;;;;;9.71;77.01;99612.25;5096757;27;69683;-62
2021/12/25 05:54:02;;;;;;;;;48.25;37.00;;;;;9.73;77.25;99617.34;5097635;27;45361;-61
2021/12/25 05:56:27;;;;;;;;;43.00;35.00;;;;;9.73;76.87;99612.09;5062687;27;45379;-61
2021/12/25 05:58:53;;;;;;;;;45.00;35.25;;;;;9.74;76.93;99608.50;5096733;27;65420;-61
2021/12/25 06:01:18;;;;;;;;;41.00;34.00;;;;;9.73;76.83;99612.94;5062285;27;46731;-61
2021/12/25 06:03:43;;;;;;;;;50.25;36.75;;;;;9.72;77.09;99611.28;5097401;27;45370;-61
2021/12/25 06:06:09;;;;;;;;;37.25;34.00;;;;;9.73;76.70;99612.09;5097212;27;50705;-61
2021/12/25 06:08:34;;;;;;;;;48.25;39.75;;;;;9.72;76.67;99616.53;5096715;27;66635;-60
2021/12/25 06:11:02;;;;;;;;;52.50;42.75;;;;;9.73;76.82;99617.34;5096275;27;74589;-61
2021/12/25 06:13:28;;;;;;;;;48.25;39.00;;;;;9.72;76.90;99615.69;5097544;27;45828;-60
2021/12/25 06:15:53;;;;;;;;;45.50;38.00;;;;;9.72;77.10;99615.69;5079338;27;45405;-62
2021/12/25 06:18:18;;;;;;;;;54.00;41.75;;;;;9.71;77.02;99614.88;5078726;27;51787;-61
2021/12/25 06:20:44;;;;;;;;;48.50;38.00;;;;;9.71;76.77;99624.53;5096376;27;67845;-62
2021/12/25 06:23:09;;;;;;;;;50.00;38.75;;;;;9.72;77.05;99628.81;5079073;27;45394;-60
2021/12/25 06:25:35;;;;;;;;;48.50;38.50;;;;;9.72;77.03;99628.81;5097275;27;45284;-61
2021/12/25 06:28:00;;;;;;;;;49.50;38.50;;;;;9.71;77.08;99622.75;5077837;27;66476;-61
2021/12/25 06:30:25;;;;;;;;;45.00;36.50;;;;;9.71;77.18;99625.38;5078020;27;63901;-60
2021/12/25 06:32:51;;;;;;;;;52.50;42.25;;;;;9.73;77.11;99619.97;5097019;27;45255;-61
2021/12/25 06:35:16;;;;;;;;;49.75;39.00;;;;;9.72;77.17;99628.81;5096363;27;64378;-61
2021/12/25 06:37:45;;;;;;;;;48.75;39.75;;;;;9.73;77.04;99630.44;5097149;27;45353;-61
2021/12/25 06:40:11;;;;;;;;;49.25;40.75;;;;;9.70;76.91;99625.50;5096831;27;46238;-60
2021/12/25 06:42:37;;;;;;;;;58.50;45.75;;;;;9.71;76.84;99622.75;5096912;27;45320;-59
2021/12/25 06:45:03;;;;;;;;;51.75;42.00;;;;;9.70;77.20;99621.09;5097087;27;45361;-61
2021/12/25 06:47:29;;;;;;;;;50.50;38.00;;;;;9.71;77.07;99633.25;5096645;27;45477;-62
2021/12/25 06:49:54;;;;;;;;;48.00;38.00;;;;;9.70;77.13;99628.97;5096083;27;66002;-61
2021/12/25 06:52:19;;;;;;;;;50.50;40.75;;;;;9.69;76.99;99632.56;5095914;27;68128;-59
2021/12/25 06:54:45;;;;;;;;;48.25;39.50;;;;;9.70;77.30;99630.75;5096205;27;45517;-60
2021/12/25 06:57:10;;;;;;;;;45.00;38.25;;;;;9.69;76.93;99629.13;5078917;27;45419;-60
2021/12/25 06:59:36;;;;;;;;;51.00;40.50;;;;;9.70;77.11;99628.97;5096636;27;45419;-62
2021/12/25 07:02:01;;;;;;;;;50.50;40.00;;;;;9.69;77.25;99635.19;5095974;27;68863;-61
2021/12/25 07:04:27;;;;;;;;;46.00;39.50;;;;;9.70;77.37;99638.63;5096971;27;45845;-61
2021/12/25 07:06:52;;;;;;;;;53.75;42.00;;;;;9.70;77.04;99643.88;5096936;27;45430;-61
2021/12/25 07:09:17;;;;;;;;;49.00;39.75;;;;;9.70;76.89;99643.88;5078529;27;46016;-61
2021/12/25 07:11:43;;;;;;;;;50.00;39.75;;;;;9.71;76.92;99648.16;5077521;27;70173;-61
2021/12/25 07:14:09;;;;;;;;;52.75;41.50;;;;;9.69;76.91;99650.09;5096769;27;45280;-61
2021/12/25 07:16:35;;;;;;;;;50.50;38.25;;;;;9.69;77.28;99648.31;5096643;27;45322;-60
2021/12/25 07:19:00;;;;;;;;;52.75;42.75;;;;;9.69;77.15;99642.22;5095677;27;65762;-61
2021/12/25 07:21:25;;;;;;;;;39.75;34.25;;;;;9.70;77.19;99641.25;5061240;27;45290;-60
2021/12/25 07:23:51;;;;;;;;;44.50;35.00;;;;;9.70;77.29;99647.34;5095802;27;61536;-60
2021/12/25 07:26:17;;;;;;;;;41.50;34.50;;;;;9.72;77.54;99649.78;5095445;27;64848;-62
2021/12/25 07:28:44;;;;;;;;;45.00;34.75;;;;;9.72;77.45;99647.16;5077980;27;47135;-61
2021/12/25 07:31:09;;;;;;;;;45.25;35.50;;;;;9.73;77.25;99646.19;5096404;27;45339;-60
2021/12/25 07:33:36;;;;;;;;;46.25;34.75;;;;;9.74;77.31;99650.47;5095524;27;64974;-60
2021/12/25 07:36:02;;;;;;;;;41.75;33.75;;;;;9.74;77.22;99651.31;5096503;27;45595;-61
2021/12/25 07:38:28;;;;;;;;;35.50;32.00;;;;;9.75;77.23;99652.94;5077742;27;47410;-62
2021/12/25 07:40:53;;;;;;;;;38.00;34.25;;;;;9.75;77.21;99658.19;5096081;27;45401;-60
2021/12/25 07:43:18;;;;;;;;;38.00;34.25;;;;;9.77;77.05;99658.03;5096323;27;45413;-61
2021/12/25 07:45:48;;;;;;;;;38.50;32.50;;;;;9.77;77.48;99655.41;5095328;27;63580;-60
2021/12/25 07:48:14;;;;;;;;;36.75;32.50;;;;;9.76;77.09;99651.97;5095965;27;45326;-61
2021/12/25 07:50:40;;;;;;;;;39.25;33.25;;;;;9.77;77.29;99655.41;5096053;27;45940;-60
2021/12/25 07:53:06;;;;;;;;;39.25;32.25;;;;;9.76;77.21;99659.84;5096078;27;45245;-61
2021/12/25 07:55:32;;;;;;;;;35.25;30.50;;;;;9.77;77.26;99655.41;5077975;27;45608;-60
2021/12/25 07:57:58;;;;;;;;;38.75;32.75;;;;;9.75;77.16;99655.56;5095634;27;45483;-60
2021/12/25 08:00:24;;;;;;;;;39.50;33.00;;;;;9.76;77.21;99648.50;5095626;27;45809;-60
2021/12/25 08:02:49;;;;;;;;;39.25;34.00;;;;;9.77;77.33;99658.03;5095971;27;45236;-61
2021/12/25 08:05:15;;;;;;;;;40.00;32.50;;;;;9.75;77.35;99652.94;5095755;27;45399;-60
2021/12/25 08:07:40;;;;;;;;;43.00;36.00;;;;;9.76;77.12;99653.75;5079773;27;64813;-59
2021/12/25 08:10:13;;;;;;;;;37.50;32.25;;;;;9.75;77.16;99654.75;5098729;27;58343;-60
2021/12/25 08:12:46;;;;;;;;;41.75;35.25;;;;;9.75;77.11;99660.81;5099293;27;45174;-61
2021/12/25 08:15:12;;;;;;;;;35.00;31.75;;;;;9.76;77.38;99659.00;5080927;27;45249;-60
2021/12/25 08:17:38;;;;;;;;;38.00;33.50;;;;;9.76;77.11;99661.63;5098929;27;46361;-61
2021/12/25 08:20:03;;;;;;;;;37.00;32.00;;;;;9.76;77.27;99664.25;5098960;27;45278;-60
2021/12/25 08:22:29;;;;;;;;;44.50;34.50;;;;;9.77;77.49;99660.66;5080771;27;45262;-61
2021/12/25 08:24:54;;;;;;;;;40.50;34.00;;;;;9.78;77.30;99659.69;5099228;27;45241;-63
2021/12/25 08:27:20;;;;;;;;;37.50;32.50;;;;;9.77;77.32;99653.63;5063435;27;47027;-61
2021/12/25 08:29:45;;;;;;;;;36.75;33.25;;;;;9.78;77.35;99660.53;5098019;27;65982;-61
2021/12/25 08:32:11;;;;;;;;;42.25;34.75;;;;;9.79;77.70;99662.16;5098182;27;64335;-60
2021/12/25 08:34:37;;;;;;;;;44.00;37.00;;;;;9.78;77.63;99657.91;5098934;27;45418;-60
2021/12/25 08:37:03;;;;;;;;;48.25;37.00;;;;;9.80;77.54;99662.97;5098735;27;46531;-60
2021/12/25 08:39:29;;;;;;;;;43.00;36.50;;;;;9.80;77.35;99661.16;5098723;27;48944;-61
2021/12/25 08:42:02;;;;;;;;;51.50;39.75;;;;;9.81;77.23;99664.63;5098896;27;45767;-62
2021/12/25 08:44:40;;;;;;;;;49.00;39.50;;;;;9.81;77.76;99662.00;5099025;27;45374;-60
2021/12/25 08:47:07;;;;;;;;;46.25;36.25;;;;;9.81;77.48;99664.63;5082292;27;46233;-62
2021/12/25 08:49:33;;;;;;;;;47.25;37.75;;;;;9.84;77.62;99663.47;5098728;27;45828;-61
2021/12/25 08:52:01;;;;;;;;;46.75;37.25;;;;;9.84;77.87;99663.47;5098854;27;45322;-60
2021/12/25 08:54:26;;;;;;;;;43.00;35.50;;;;;9.84;77.52;99659.06;5098621;27;45509;-60
2021/12/25 08:56:51;;;;;;;;;48.75;38.50;;;;;9.85;77.39;99663.34;5098330;27;51186;-60
2021/12/25 08:59:17;;;;;;;;;44.75;34.50;;;;;9.86;77.55;99659.75;5097545;27;70120;-60
2021/12/25 09:01:42;;;;;;;;;46.75;38.00;;;;;9.87;77.69;99664.00;5098766;27;45847;-60
2021/12/25 09:04:08;;;;;;;;;41.25;36.75;;;;;9.88;77.62;99665.66;5098463;27;45385;-61
2021/12/25 09:06:33;;;;;;;;;41.75;35.75;;;;;9.90;77.97;99668.13;5080104;27;46929;-60
2021/12/25 09:08:59;;;;;;;;;49.25;39.25;;;;;9.90;77.76;99670.75;5062426;27;68868;-62
2021/12/25 09:11:25;;;;;;;;;49.25;37.50;;;;;9.91;77.71;99672.38;5098645;27;45336;-62
2021/12/25 09:13:50;;;;;;;;;52.00;38.00;;;;;9.91;77.75;99673.22;5098491;27;45439;-62
2021/12/25 09:16:16;;;;;;;;;50.25;39.75;;;;;9.93;78.03;99683.56;5080022;27;46220;-60
2021/12/25 09:18:41;;;;;;;;;55.75;42.75;;;;;9.94;77.67;99674.72;5078661;27;67225;-61
2021/12/25 09:21:07;;;;;;;;;47.50;37.25;;;;;9.94;77.72;99672.94;5080100;27;45427;-60
2021/12/25 09:23:32;;;;;;;;;48.50;38.75;;;;;9.97;78.13;99681.47;5079685;27;51886;-61
2021/12/25 09:25:57;;;;;;;;;54.00;40.50;;;;;9.97;77.71;99681.47;5097055;27;71679;-61
2021/12/25 09:28:23;;;;;;;;;51.25;40.00;;;;;9.99;77.73;99684.78;5097317;27;63055;-61
2021/12/25 09:30:48;;;;;;;;;55.00;42.75;;;;;10.00;77.85;99678.53;5097163;27;63630;-60
2021/12/25 09:33:14;;;;;;;;;51.50;39.75;;;;;10.02;78.04;99681.84;5098090;27;45191;-62
2021/12/25 09:35:39;;;;;;;;;59.75;45.50;;;;;10.02;77.91;99684.47;5097121;27;71876;-61
2021/12/25 09:38:04;;;;;;;;;59.75;47.50;;;;;10.04;78.30;99687.75;5097552;27;62439;-60
2021/12/25 09:40:30;;;;;;;;;55.75;42.75;;;;;10.05;77.96;99684.97;5097618;27;51072;-61
2021/12/25 09:42:55;;;;;;;;;57.50;46.25;;;;;10.07;77.97;99682.19;5098093;27;45370;-61
2021/12/25 09:45:21;;;;;;;;;67.25;52.50;;;;;10.09;78.11;99690.72;5097770;27;45446;-62
2021/12/25 09:47:46;;;;;;;;;66.00;51.25;;;;;10.10;78.25;99692.38;5096871;27;71560;-62
2021/12/25 09:50:12;;;;;;;;;57.75;45.00;;;;;10.12;77.95;99700.91;5097088;27;64239;-62
2021/12/25 09:52:38;;;;;;;;;58.25;46.50;;;;;10.12;78.29;99700.91;5078619;27;63231;-64
2021/12/25 09:55:04;;;;;;;;;54.00;41.25;;;;;10.16;77.62;99709.31;5079373;27;47510;-60
2021/12/25 09:57:29;;;;;;;;;53.50;44.50;;;;;10.18;78.28;99702.13;5079280;27;45406;-60
2021/12/25 09:59:55;;;;;;;;;53.25;43.25;;;;;10.19;78.23;99701.13;5096913;27;64135;-63
2021/12/25 10:02:20;;;;;;;;;60.50;45.25;;;;;10.22;78.06;99695.59;5097699;27;45522;-62
2021/12/25 10:04:50;;;;;;;;;57.25;46.75;;;;;10.22;78.25;99704.28;5079296;27;48376;-63
2021/12/25 10:07:23;;;;;;;;;59.00;45.50;;;;;10.25;77.83;99700.53;5097696;27;45842;-63
2021/12/25 10:10:15;;;;;;;;;56.25;44.50;;;;;10.27;78.38;99703.81;5097898;27;45451;-63
2021/12/25 10:12:46;;;;;;;;;59.00;44.50;;;;;10.30;78.33;99697.41;5097639;27;45229;-62
2021/12/25 10:15:13;;;;;;;;;52.75;42.25;;;;;10.32;78.36;99695.47;5062705;27;47429;-63
2021/12/25 10:17:44;;;;;;;;;55.75;41.75;;;;;10.35;78.14;99700.41;5097406;27;45895;-62
2021/12/25 10:20:13;;;;;;;;;53.50;41.25;;;;;10.38;78.06;99697.47;5097479;27;45373;-61
2021/12/25 10:22:58;;;;;;;;;54.75;42.75;;;;;10.40;78.35;99700.81;5097542;27;45489;-63
2021/12/25 10:25:23;;;;;;;;;52.50;41.25;;;;;10.43;77.97;99697.03;5097311;27;45634;-64
2021/12/25 10:28:00;;;;;;;;;51.00;41.25;;;;;10.44;78.27;99689.00;5078794;27;45320;-63
2021/12/25 10:30:25;;;;;;;;;51.75;40.50;;;;;10.47;78.16;99695.75;5096679;27;45412;-64
2021/12/25 10:32:51;;;;;;;;;54.50;40.00;;;;;10.49;78.28;99686.75;5078881;27;52255;-63
2021/12/25 10:35:18;;;;;;;;;50.50;38.25;;;;;10.52;77.62;99686.44;5096346;27;69457;-63
2021/12/25 10:37:44;;;;;;;;;51.00;39.75;;;;;10.53;77.90;99674.94;5079038;27;45339;-62
2021/12/25 10:40:18;;;;;;;;;51.25;41.00;;;;;10.55;78.06;99672.16;5097089;27;45268;-60
2021/12/25 10:42:45;;;;;;;;;52.50;41.25;;;;;10.57;77.93;99670.19;5078819;27;45249;-60
2021/12/25 10:45:13;;;;;;;;;48.25;39.75;;;;;10.60;77.82;99672.50;5078864;27;46656;-61
2021/12/25 10:47:38;;;;;;;;;55.25;43.50;;;;;10.62;78.00;99674.97;5096754;27;45947;-61
2021/12/25 10:50:12;;;;;;;;;57.00;42.00;;;;;10.65;77.66;99674.63;5078015;27;65216;-61
2021/12/25 10:52:43;;;;;;;;;52.00;41.25;;;;;10.67;78.06;99676.16;5097021;27;45244;-61
2021/12/25 10:55:21;;;;;;;;;64.25;45.75;;;;;10.69;77.98;99678.59;5096992;27;46502;-61
2021/12/25 10:57:48;;;;;;;;;62.50;46.75;;;;;10.71;77.66;99671.38;5079051;27;45895;-61
2021/12/25 11:00:20;;;;;;;;;64.75;47.25;;;;;10.74;78.00;99672.88;5096879;27;45509;-63
2021/12/25 11:02:58;;;;;;;;;55.25;44.25;;;;;10.75;77.71;99667.47;5096923;27;45361;-62
2021/12/25 11:05:30;;;;;;;;;58.75;45.25;;;;;10.78;77.64;99663.72;5096905;27;45428;-62
2021/12/25 11:08:05;;;;;;;;;57.50;43.00;;;;;10.81;77.56;99650.25;5096870;27;45857;-63
2021/12/25 11:10:31;;;;;;;;;54.75;41.50;;;;;10.82;77.61;99650.09;5096863;27;45812;-63
2021/12/25 11:12:57;;;;;;;;;56.75;44.75;;;;;10.84;77.93;99645.50;5096813;27;45534;-63
2021/12/25 11:15:25;;;;;;;;;57.75;46.00;;;;;10.87;77.75;99651.41;5096698;27;46919;-62
2021/12/25 11:17:53;;;;;;;;;60.50;45.25;;;;;10.88;78.04;99650.44;5096643;27;45177;-63
2021/12/25 11:20:30;;;;;;;;;58.25;45.50;;;;;10.91;77.53;99647.47;5096479;27;45385;-62
2021/12/25 11:22:57;;;;;;;;;54.00;43.50;;;;;10.90;77.29;99641.38;5096666;27;45424;-62
2021/12/25 11:25:25;;;;;;;;;61.50;46.75;;;;;10.91;77.77;99643.03;5078523;27;46702;-62
2021/12/25 11:27:50;;;;;;;;;57.75;46.00;;;;;10.94;77.86;99641.91;5096197;27;45362;-62
2021/12/25 11:30:18;;;;;;;;;55.00;42.75;;;;;10.94;77.91;99647.16;5096634;27;45367;-63
2021/12/25 11:32:43;;;;;;;;;58.25;46.00;;;;;10.95;77.29;99638.28;5078529;27;45391;-64
2021/12/25 11:35:10;;;;;;;;;63.75;47.00;;;;;10.95;77.35;99647.00;5061035;27;46373;-63
2021/12/25 11:37:36;;;;;;;;;61.50;48.00;;;;;10.96;77.28;99632.06;5096384;27;45454;-61
2021/12/25 11:40:01;;;;;;;;;54.75;45.00;;;;;10.96;77.58;99632.88;5096994;27;45245;-62
2021/12/25 11:42:28;;;;;;;;;57.00;45.50;;;;;10.97;77.80;99631.06;5100072;27;45305;-63
2021/12/25 11:44:54;;;;;;;;;58.00;44.75;;;;;10.98;77.71;99632.72;5099515;27;47138;-62
2021/12/25 11:47:53;;;;;;;;;55.25;43.50;;;;;10.99;77.83;99629.09;5099738;27;45307;-62
2021/12/25 11:50:34;;;;;;;;;55.50;43.75;;;;;11.00;77.35;99633.38;5080438;27;45374;-63
2021/12/25 11:53:21;;;;;;;;;48.25;40.50;;;;;11.01;77.60;99627.16;5099996;27;45461;-62
2021/12/25 11:56:16;;;;;;;;;54.75;42.50;;;;;11.01;77.59;99632.41;5080952;27;47473;-63
2021/12/25 11:58:44;;;;;;;;;53.25;44.25;;;;;11.02;77.36;99634.03;5083921;27;45299;-62
2021/12/25 12:01:16;;;;;;;;;55.00;43.75;;;;;11.00;77.61;99625.50;5099875;27;45323;-62
2021/12/25 12:03:46;;;;;;;;;55.25;44.25;;;;;11.03;77.18;99624.34;5099635;27;45457;-61
2021/12/25 12:06:13;;;;;;;;;56.00;44.75;;;;;11.02;77.00;99612.19;5099491;27;46593;-63
2021/12/25 12:08:53;;;;;;;;;65.75;50.75;;;;;11.02;77.06;99618.28;5080846;27;45680;-61
2021/12/25 12:11:28;;;;;;;;;55.00;44.75;;;;;11.03;77.50;99622.53;5099137;27;45189;-62
2021/12/25 12:14:19;;;;;;;;;56.00;45.25;;;;;11.02;77.05;99618.28;5081262;27;45400;-62
2021/12/25 12:16:46;;;;;;;;;64.00;47.50;;;;;11.04;77.49;99615.47;5081756;27;45378;-62
2021/12/25 12:19:29;;;;;;;;;58.75;46.00;;;;;11.05;77.01;99622.38;5099148;27;45202;-64
2021/12/25 12:21:55;;;;;;;;;57.25;43.50;;;;;11.06;77.22;99614.34;5099242;27;45327;-62
2021/12/25 12:27:02;;;;;;;;;56.50;45.25;;;;;11.05;77.38;99612.69;5098841;27;45334;-63
2021/12/25 12:29:47;;;;;;;;;58.00;44.25;;;;;11.05;77.51;99606.59;5080795;27;45915;-62
2021/12/25 12:32:18;;;;;;;;;52.25;40.25;;;;;11.06;77.11;99608.25;5099276;27;45256;-62
2021/12/25 12:34:44;;;;;;;;;57.50;45.25;;;;;11.05;77.21;99610.06;5099257;27;45539;-63
2021/12/25 12:37:15;;;;;;;;;54.25;43.75;;;;;11.06;77.36;99605.63;5098995;27;46121;-64
2021/12/25 12:39:41;;;;;;;;;53.75;44.25;;;;;11.07;77.21;99604.63;5099009;27;45260;-64
2021/12/25 12:42:09;;;;;;;;;54.25;42.50;;;;;11.08;77.28;99609.75;5063801;27;45201;-62